• Join FlightAware (Why Join?)
  • Login
  • US Flag 
01:26AM EST


 

Airport Tracker/Info


-or-


 

Live Flight TrackerFlight Track Log ✈ UPS1337 ✈ 11-Mar-2014 ✈ KPIE - KSDF

Flight Track Log - Related Links

Times and Time Zones

All times are in EDT time to prevent confusion due to time zone crossing. See the UPS1337 flight status page for this flight to view local times or setup timezone preferences in your user account.

Time Position Orientation Groundspeed Altitude Reporting Facility
EDT Latitude Longitude Course Direction KTS MPH feet Rate Location/Type
09:47PM 27.9000 -82.6833 180° South 159 183 700  Level Tampa TRACON
09:48PM 27.8667 -82.6833 180° South 163 188 2,500 2,460 Climbing Tampa TRACON
09:49PM 27.8786 -82.7306 286° West 146 168 6,700 2,340 Climbing Jacksonville Center
09:50PM 27.9578 -82.7328 359° North 183 211 9,200 2,220 Climbing Jacksonville Center
09:51PM 28.0539 -82.7350 359° North 247 284 11,200 2,160 Climbing Jacksonville Center
09:52PM 28.1667 -82.7419 357° North 338 389 13,600 2,460 Climbing Jacksonville Center
09:53PM 28.2875 -82.7442 359° North 402 463 16,200 2,700 Climbing Jacksonville Center
09:54PM 28.4067 -82.7700 349° North 417 480 19,000 2,640 Climbing Jacksonville Center
09:55PM 28.5256 -82.7981 348° North 431 496 21,500 1,980 Climbing Jacksonville Center
10:02PM 29.3126 -83.0557 341° North 463 533 33,500 1,680 Climbing FlightAware ADS-B (KMCO)
10:03PM 29.4641 -83.1166 341° North 471 542 34,000 180 Climbing FlightAware ADS-B (KMCO)
10:03PM 29.5417 -83.1528 341° North 467 537 33,900  Descending Jacksonville Center
10:09PM 30.2741 -83.4427 341° North 462 532 34,000  Climbing FlightAware ADS-B
10:10PM 30.3542 -83.4752 341° North 462 532 34,000  Level FlightAware ADS-B
10:11PM 30.4209 -83.5025 341° North 462 532 34,000  Level FlightAware ADS-B
10:11PM 30.4995 -83.5346 341° North 459 528 34,000  Level FlightAware ADS-B (KTLH)
10:12PM 30.5444 -83.5530 340° North 459 528 34,000  Level FlightAware ADS-B (KTLH)
10:13PM 30.6584 -83.5998 341° North 458 527 34,000  Level FlightAware ADS-B (KTLH)
10:13PM 30.6784 -83.6080 341° North 458 527 34,000  Level FlightAware ADS-B (KTLH)
10:14PM 30.7938 -83.6553 340° North 460 529 34,000  Level FlightAware ADS-B (KTLH)
10:15PM 30.8996 -83.6990 341° North 459 528 34,000  Level FlightAware ADS-B (KTLH)
10:15PM 30.9983 -83.7397 340° North 458 527 34,000  Level FlightAware ADS-B (KTLH)
10:17PM 31.1954 -83.8212 340° North 466 536 34,000  Level FlightAware ADS-B (KTLH)
10:18PM 31.3353 -83.8833 340° North 468 539 34,000  Level Atlanta Center
10:19PM 31.4564 -83.9342 340° North 468 539 34,000  Level Atlanta Center
10:20PM 31.5858 -83.9681 347° North 468 539 34,000  Level Atlanta Center
10:21PM 31.7028 -83.9925 350° North 468 539 34,000  Level Atlanta Center
10:22PM 31.8364 -84.0094 354° North 474 545 34,000  Level Atlanta Center
10:23PM 31.9678 -84.0267 354° North 474 545 34,000  Level Atlanta Center
10:24PM 32.0994 -84.0461 353° North 474 545 34,000  Level Atlanta Center
10:25PM 32.2308 -84.0658 353° North 479 551 34,000  Level Atlanta Center
10:26PM 32.3622 -84.0881 352° North 479 551 34,000  Level Atlanta Center
10:27PM 32.4958 -84.1078 353° North 479 551 34,000  Level Atlanta Center
10:28PM 32.6275 -84.1253 354° North 484 557 34,000  Level Atlanta Center
10:29PM 32.7611 -84.1500 351° North 484 557 34,000  Level Atlanta Center
10:30PM 32.8925 -84.1725 352° North 484 557 34,000  Level Atlanta Center
10:31PM 33.0239 -84.1925 353° North 484 557 34,000  Level Atlanta Center
10:32PM 33.1575 -84.2150 352° North 479 551 34,000  Level Atlanta Center
10:33PM 33.2911 -84.2353 353° North 486 559 34,000  Level Atlanta Center
10:39PM 34.0493 -84.3498 352° North 474 545 34,000  Level FlightAware ADS-B (KDZJ)
10:39PM 34.1386 -84.3641 352° North 483 556 34,000  Level FlightAware ADS-B (KDZJ)
10:40PM 34.2257 -84.3781 352° North 483 556 34,000  Level FlightAware ADS-B (KDZJ)
10:41PM 34.3163 -84.3927 352° North 483 556 34,000  Level FlightAware ADS-B (KDZJ)
10:41PM 34.4042 -84.4069 352° North 473 544 34,000  Level FlightAware ADS-B (KDZJ)
10:42PM 34.4927 -84.4211 352° North 470 541 34,000  Level FlightAware ADS-B (KDZJ)
10:43PM 34.5793 -84.4351 352° North 468 539 34,000  Level FlightAware ADS-B (KDZJ)
10:43PM 34.6650 -84.4492 352° North 469 540 34,000  Level FlightAware ADS-B (KDZJ)
10:44PM 34.7551 -84.4639 352° North 469 540 34,000  Level FlightAware ADS-B (KDZJ)
10:45PM 34.8363 -84.4771 352° North 470 541 34,000  Level FlightAware ADS-B (KDZJ)
10:45PM 34.9312 -84.4925 352° North 471 542 34,000  Level FlightAware ADS-B (KDZJ)
10:46PM 35.0174 -84.5067 352° North 471 542 34,000  Level FlightAware ADS-B (KDZJ)
10:47PM 35.1066 -84.5213 352° North 471 542 34,000  Level FlightAware ADS-B (KDZJ)
10:47PM 35.1911 -84.5352 352° North 472 543 34,000  Level FlightAware ADS-B (KDZJ)
10:48PM 35.2665 -84.5476 352° North 474 545 34,000  Level FlightAware ADS-B (KDZJ)
10:49PM 35.4231 -84.5764 352° North 484 557 34,000  Level Atlanta Center
10:50PM 35.5542 -84.5978 352° North 484 557 34,000  Level Atlanta Center
10:51PM 35.6836 -84.6192 352° North 479 551 34,000 -480 Level Atlanta Center
10:52PM 35.8150 -84.6381 353° North 479 551 33,100 -1,320 Descending Atlanta Center
10:59PM 36.6921 -84.7866 352° North 461 531 24,100 -1,440 Descending FlightAware ADS-B
11:00PM 36.8203 -84.8085 352° North 453 521 22,400 -1,800 Descending FlightAware ADS-B
11:05PM 37.3976 -84.9081 352° North 406 467 13,400 -1,440 Descending FlightAware ADS-B
11:09PM 37.7699 -85.1118 312° West 378 435 10,300 -600 Descending FlightAware ADS-B
11:10PM 37.8596 -85.2364 313° West 346 398 10,400 -360 Climbing FlightAware ADS-B
11:11PM 37.9116 -85.3393 299° West 273 314 9,400 -1,200 Descending FlightAware ADS-B
11:12PM 37.9453 -85.4450 288° West 263 303 7,500 -1,500 Descending FlightAware ADS-B
11:13PM 37.9642 -85.5098 291° West 259 298 6,500 -960 Descending FlightAware ADS-B (EPWR / WRO)
11:14PM 37.9760 -85.5476 292° West 260 299 6,300 -180 Descending FlightAware ADS-B
11:15PM 38.0047 -85.6397 291° West 262 302 6,300  Level FlightAware ADS-B
11:16PM 38.0315 -85.7251 292° West 264 304 6,300  Level FlightAware ADS-B
11:17PM 38.0593 -85.7980 330° Northwest 285 328 6,400 -120 Climbing FlightAware ADS-B
11:18PM 38.1554 -85.8424 342° North 288 331 6,100 -900 Descending FlightAware ADS-B
11:19PM 38.2423 -85.8793 341° North 273 314 4,400 -1,200 Descending FlightAware ADS-B
11:20PM 38.3133 -85.9042 341° North 276 318 3,300 -660 Descending Indianapolis Center
11:21PM 38.3411 -85.8431 60° Northeast 235 270 3,000 -420 Descending Indianapolis Center
11:22PM 38.3103 -85.7978 131° Southeast 188 216 2,500 -420 Descending Indianapolis Center
11:23PM 38.2689 -85.7783 160° South 177 204 2,200 -300 Descending Indianapolis Center